Station Historical Data
Daily Summary for March 19, 2017 Units:  Both    English   Metric
« Previous Day
Next Day »
Daily Weekly Monthly Yearly Custom
  High: Low: Average:
Temperature: 39.7 °F /  4.3 °C 30.0 °F /  -1.1 °C 34.5 °F /  1.4 °C
Dew Point: 31.6 °F /  -0.2 °C 27.3 °F /  -2.6 °C 30.2 °F /  -1 °C
Humidity: 93% 69% 85%
Wind Speed: 8.0mph /  12.9km/h - 2.2mph /  3.5km/h
Wind Gust: 12.0mph /  19.3km/h - -
Wind- - SSE
Pressure: 30.35 in /  1027.7 hPa 30.15 in /  1020.9 hPa -
Precipitation: 0.00 in /  0 mm    
Historical Graphs
 
 
Tabular Data for March 19, 2017
Time Temperature Dew Point Pressure Wind Wind Speed Wind Gust Humidity Rainfall Rate (Hourly)
00:04 33.5 °F /  0.8 °C 31.4 °F /  -0.3 °C 30.15in /  1020.9hPa North 1.0mph /  1.6km/h 2.0mph /  3.2km/h 92% 0.00in /  0mm
00:09 33.5 °F /  0.8 °C 31.4 °F /  -0.3 °C 30.15in /  1020.9hPa North 2.0mph /  3.2km/h 3.0mph /  4.8km/h 92% 0.00in /  0mm
00:14 33.5 °F /  0.8 °C 31.4 °F /  -0.3 °C 30.15in /  1020.9hPa North 3.0mph /  4.8km/h 3.0mph /  4.8km/h 92% 0.00in /  0mm
00:19 33.5 °F /  0.8 °C 31.4 °F /  -0.3 °C 30.15in /  1020.9hPa North 2.0mph /  3.2km/h 3.0mph /  4.8km/h 92% 0.00in /  0mm
00:24 33.5 °F /  0.8 °C 31.4 °F /  -0.3 °C 30.15in /  1020.9hPa North 2.0mph /  3.2km/h 3.0mph /  4.8km/h 92% 0.00in /  0mm
00:29 33.5 °F /  0.8 °C 31.4 °F /  -0.3 °C 30.16in /  1021.2hPa NNW 2.0mph /  3.2km/h 3.0mph /  4.8km/h 92% 0.00in /  0mm
00:34 33.4 °F /  0.8 °C 31.3 °F /  -0.4 °C 30.15in /  1020.9hPa NNW 2.0mph /  3.2km/h 2.0mph /  3.2km/h 92% 0.00in /  0mm
00:39 33.4 °F /  0.8 °C 31.3 °F /  -0.4 °C 30.16in /  1021.2hPa North 1.0mph /  1.6km/h 3.0mph /  4.8km/h 92% 0.00in /  0mm
00:44 33.4 °F /  0.8 °C 31.3 °F /  -0.4 °C 30.16in /  1021.2hPa Calm   2.0mph /  3.2km/h 92% 0.00in /  0mm
00:49 33.4 °F /  0.8 °C 31.3 °F /  -0.4 °C 30.16in /  1021.2hPa Calm   1.0mph /  1.6km/h 92% 0.00in /  0mm
00:54 33.3 °F /  0.7 °C 31.5 °F /  -0.3 °C 30.16in /  1021.2hPa Calm   1.0mph /  1.6km/h 93% 0.00in /  0mm
00:59 33.3 °F /  0.7 °C 31.5 °F /  -0.3 °C 30.16in /  1021.2hPa NNW 1.0mph /  1.6km/h 4.0mph /  6.4km/h 93% 0.00in /  0mm
01:05 33.3 °F /  0.7 °C 31.5 °F /  -0.3 °C 30.16in /  1021.2hPa Calm   4.0mph /  6.4km/h 93% 0.00in /  0mm
01:10 33.4 °F /  0.8 °C 31.6 °F /  -0.2 °C 30.16in /  1021.2hPa NNW 1.0mph /  1.6km/h 4.0mph /  6.4km/h 93% 0.00in /  0mm
01:15 33.3 °F /  0.7 °C 31.5 °F /  -0.3 °C 30.16in /  1021.2hPa NNW 1.0mph /  1.6km/h 3.0mph /  4.8km/h 93% 0.00in /  0mm
01:20 33.3 °F /  0.7 °C 31.5 °F /  -0.3 °C 30.16in /  1021.2hPa NNE 1.0mph /  1.6km/h 3.0mph /  4.8km/h 93% 0.00in /  0mm
01:25 33.3 °F /  0.7 °C 31.2 °F /  -0.4 °C 30.16in /  1021.2hPa Calm   2.0mph /  3.2km/h 92% 0.00in /  0mm
01:30 33.3 °F /  0.7 °C 31.2 °F /  -0.4 °C 30.16in /  1021.2hPa NNE 1.0mph /  1.6km/h 3.0mph /  4.8km/h 92% 0.00in /  0mm
01:35 33.3 °F /  0.7 °C 31.2 °F /  -0.4 °C 30.16in /  1021.2hPa NNE 1.0mph /  1.6km/h 3.0mph /  4.8km/h 92% 0.00in /  0mm
01:45 33.3 °F /  0.7 °C 31.2 °F /  -0.4 °C 30.17in /  1021.6hPa Calm     92% 0.00in /  0mm
01:50 33.3 °F /  0.7 °C 31.2 °F /  -0.4 °C 30.17in /  1021.6hPa NNE 3.0mph /  4.8km/h 3.0mph /  4.8km/h 92% 0.00in /  0mm
01:55 33.3 °F /  0.7 °C 31.2 °F /  -0.4 °C 30.17in /  1021.6hPa NNE 1.0mph /  1.6km/h 3.0mph /  4.8km/h 92% 0.00in /  0mm
02:00 33.3 °F /  0.7 °C 31.2 °F /  -0.4 °C 30.17in /  1021.6hPa NNE 2.0mph /  3.2km/h 4.0mph /  6.4km/h 92% 0.00in /  0mm
02:05 33.2 °F /  0.7 °C 31.1 °F /  -0.5 °C 30.17in /  1021.6hPa North 1.0mph /  1.6km/h 4.0mph /  6.4km/h 92% 0.00in /  0mm
02:10 33.2 °F /  0.7 °C 31.1 °F /  -0.5 °C 30.17in /  1021.6hPa NNE 2.0mph /  3.2km/h 4.0mph /  6.4km/h 92% 0.00in /  0mm
02:15 33.2 °F /  0.7 °C 31.1 °F /  -0.5 °C 30.17in /  1021.6hPa NNE 1.0mph /  1.6km/h 3.0mph /  4.8km/h 92% 0.00in /  0mm
02:20 33.1 °F /  0.6 °C 31.0 °F /  -0.6 °C 30.17in /  1021.6hPa NNE 2.0mph /  3.2km/h 3.0mph /  4.8km/h 92% 0.00in /  0mm
02:25 33.1 °F /  0.6 °C 31.0 °F /  -0.6 °C 30.18in /  1021.9hPa NNE 3.0mph /  4.8km/h 5.0mph /  8km/h 92% 0.00in /  0mm
02:30 33.0 °F /  0.6 °C 30.9 °F /  -0.6 °C 30.18in /  1021.9hPa NNE 3.0mph /  4.8km/h 5.0mph /  8km/h 92% 0.00in /  0mm
02:35 33.0 °F /  0.6 °C 31.2 °F /  -0.4 °C 30.18in /  1021.9hPa NNE 3.0mph /  4.8km/h 6.0mph /  9.7km/h 93% 0.00in /  0mm
02:40 33.0 °F /  0.6 °C 31.2 °F /  -0.4 °C 30.18in /  1021.9hPa NE 2.0mph /  3.2km/h 5.0mph /  8km/h 93% 0.00in /  0mm
02:45 32.9 °F /  0.5 °C 31.1 °F /  -0.5 °C 30.18in /  1021.9hPa NNE 2.0mph /  3.2km/h 5.0mph /  8km/h 93% 0.00in /  0mm
02:50 32.9 °F /  0.5 °C 31.1 °F /  -0.5 °C 30.17in /  1021.6hPa NE 3.0mph /  4.8km/h 7.0mph /  11.3km/h 93% 0.00in /  0mm
02:55 32.8 °F /  0.4 °C 31.0 °F /  -0.6 °C 30.18in /  1021.9hPa NE 2.0mph /  3.2km/h 7.0mph /  11.3km/h 93% 0.00in /  0mm
03:00 32.8 °F /  0.4 °C 31.0 °F /  -0.6 °C 30.18in /  1021.9hPa NE 3.0mph /  4.8km/h 7.0mph /  11.3km/h 93% 0.00in /  0mm
03:05 32.7 °F /  0.4 °C 30.9 °F /  -0.6 °C 30.18in /  1021.9hPa NE 3.0mph /  4.8km/h 8.0mph /  12.9km/h 93% 0.00in /  0mm
03:10 32.7 °F /  0.4 °C 30.6 °F /  -0.8 °C 30.18in /  1021.9hPa NE 4.0mph /  6.4km/h 8.0mph /  12.9km/h 92% 0.00in /  0mm
03:15 32.7 °F /  0.4 °C 30.6 °F /  -0.8 °C 30.18in /  1021.9hPa NE 4.0mph /  6.4km/h 9.0mph /  14.5km/h 92% 0.00in /  0mm
03:20 32.6 °F /  0.3 °C 30.5 °F /  -0.8 °C 30.17in /  1021.6hPa NE 4.0mph /  6.4km/h 9.0mph /  14.5km/h 92% 0.00in /  0mm
03:25 32.6 °F /  0.3 °C 30.5 °F /  -0.8 °C 30.17in /  1021.6hPa NE 2.0mph /  3.2km/h 7.0mph /  11.3km/h 92% 0.00in /  0mm
03:30 32.7 °F /  0.4 °C 30.6 °F /  -0.8 °C 30.18in /  1021.9hPa NE 3.0mph /  4.8km/h 7.0mph /  11.3km/h 92% 0.00in /  0mm
03:35 32.6 °F /  0.3 °C 30.5 °F /  -0.8 °C 30.17in /  1021.6hPa NE 3.0mph /  4.8km/h 8.0mph /  12.9km/h 92% 0.00in /  0mm
03:40 32.6 °F /  0.3 °C 30.5 °F /  -0.8 °C 30.17in /  1021.6hPa NNE 3.0mph /  4.8km/h 6.0mph /  9.7km/h 92% 0.00in /  0mm
03:45 32.6 °F /  0.3 °C 30.5 °F /  -0.8 °C 30.17in /  1021.6hPa ENE 3.0mph /  4.8km/h 5.0mph /  8km/h 92% 0.00in /  0mm
03:50 32.6 °F /  0.3 °C 30.5 °F /  -0.8 °C 30.17in /  1021.6hPa NE 4.0mph /  6.4km/h 5.0mph /  8km/h 92% 0.00in /  0mm
03:55 32.6 °F /  0.3 °C 30.5 °F /  -0.8 °C 30.18in /  1021.9hPa Calm   5.0mph /  8km/h 92% 0.00in /  0mm
04:00 32.6 °F /  0.3 °C 30.8 °F /  -0.7 °C 30.18in /  1021.9hPa NE 2.0mph /  3.2km/h 5.0mph /  8km/h 93% 0.00in /  0mm
04:05 32.6 °F /  0.3 °C 30.8 °F /  -0.7 °C 30.18in /  1021.9hPa NE 1.0mph /  1.6km/h 4.0mph /  6.4km/h 93% 0.00in /  0mm
04:10 32.6 °F /  0.3 °C 30.5 °F /  -0.8 °C 30.18in /  1021.9hPa NE 1.0mph /  1.6km/h 4.0mph /  6.4km/h 92% 0.00in /  0mm
04:15 32.6 °F /  0.3 °C 30.8 °F /  -0.7 °C 30.18in /  1021.9hPa NE 2.0mph /  3.2km/h 5.0mph /  8km/h 93% 0.00in /  0mm
04:20 32.6 °F /  0.3 °C 30.8 °F /  -0.7 °C 30.19in /  1022.2hPa NE 2.0mph /  3.2km/h 5.0mph /  8km/h 93% 0.00in /  0mm
04:25 32.6 °F /  0.3 °C 30.8 °F /  -0.7 °C 30.18in /  1021.9hPa NE 3.0mph /  4.8km/h 5.0mph /  8km/h 93% 0.00in /  0mm
04:30 32.5 °F /  0.3 °C 30.7 °F /  -0.7 °C 30.19in /  1022.2hPa NE 2.0mph /  3.2km/h 5.0mph /  8km/h 93% 0.00in /  0mm
04:35 32.6 °F /  0.3 °C 30.8 °F /  -0.7 °C 30.19in /  1022.2hPa NE 1.0mph /  1.6km/h 3.0mph /  4.8km/h 93% 0.00in /  0mm
04:40 32.5 °F /  0.3 °C 30.7 °F /  -0.7 °C 30.19in /  1022.2hPa Calm     93% 0.00in /  0mm
04:45 32.6 °F /  0.3 °C 30.8 °F /  -0.7 °C 30.19in /  1022.2hPa Calm     93% 0.00in /  0mm
04:50 32.6 °F /  0.3 °C 30.8 °F /  -0.7 °C 30.20in /  1022.6hPa Calm     93% 0.00in /  0mm
04:55 32.6 °F /  0.3 °C 30.8 °F /  -0.7 °C 30.20in /  1022.6hPa Calm     93% 0.00in /  0mm
05:00 32.6 °F /  0.3 °C 30.8 °F /  -0.7 °C 30.21in /  1022.9hPa Calm     93% 0.00in /  0mm
05:05 32.6 °F /  0.3 °C 30.8 °F /  -0.7 °C 30.21in /  1022.9hPa Calm   5.0mph /  8km/h 93% 0.00in /  0mm
05:10 32.6 °F /  0.3 °C 30.8 °F /  -0.7 °C 30.21in /  1022.9hPa North 1.0mph /  1.6km/h 5.0mph /  8km/h 93% 0.00in /  0mm
05:15 32.6 °F /  0.3 °C 30.8 °F /  -0.7 °C 30.22in /  1023.2hPa North 1.0mph /  1.6km/h 4.0mph /  6.4km/h 93% 0.00in /  0mm
05:20 32.5 °F /  0.3 °C 30.7 °F /  -0.7 °C 30.22in /  1023.2hPa NNW 3.0mph /  4.8km/h 6.0mph /  9.7km/h 93% 0.00in /  0mm
05:25 32.5 °F /  0.3 °C 30.7 °F /  -0.7 °C 30.22in /  1023.2hPa NW 3.0mph /  4.8km/h 4.0mph /  6.4km/h 93% 0.00in /  0mm
05:30 32.4 °F /  0.2 °C 30.6 °F /  -0.8 °C 30.22in /  1023.2hPa Calm   6.0mph /  9.7km/h 93% 0.00in /  0mm
05:35 32.4 °F /  0.2 °C 30.6 °F /  -0.8 °C 30.22in /  1023.2hPa North 2.0mph /  3.2km/h 6.0mph /  9.7km/h 93% 0.00in /  0mm
05:40 32.4 °F /  0.2 °C 30.6 °F /  -0.8 °C 30.22in /  1023.2hPa North 2.0mph /  3.2km/h 4.0mph /  6.4km/h 93% 0.00in /  0mm
05:45 32.3 °F /  0.2 °C 30.5 °F /  -0.8 °C 30.22in /  1023.2hPa North 2.0mph /  3.2km/h 4.0mph /  6.4km/h 93% 0.00in /  0mm
05:50 32.3 °F /  0.2 °C 30.5 °F /  -0.8 °C 30.22in /  1023.2hPa NE 2.0mph /  3.2km/h 4.0mph /  6.4km/h 93% 0.00in /  0mm
05:55 32.3 °F /  0.2 °C 30.5 °F /  -0.8 °C 30.23in /  1023.6hPa NNE 1.0mph /  1.6km/h 3.0mph /  4.8km/h 93% 0.00in /  0mm
06:00 32.3 °F /  0.2 °C 30.5 °F /  -0.8 °C 30.23in /  1023.6hPa NNW 1.0mph /  1.6km/h 4.0mph /  6.4km/h 93% 0.00in /  0mm
06:04 32.3 °F /  0.2 °C 30.5 °F /  -0.8 °C 30.23in /  1023.6hPa North 2.0mph /  3.2km/h 5.0mph /  8km/h 93% 0.00in /  0mm
06:10 32.3 °F /  0.2 °C 30.5 °F /  -0.8 °C 30.23in /  1023.6hPa North 2.0mph /  3.2km/h 5.0mph /  8km/h 93% 0.00in /  0mm
06:15 32.2 °F /  0.1 °C 30.4 °F /  -0.9 °C 30.24in /  1023.9hPa North 2.0mph /  3.2km/h 5.0mph /  8km/h 93% 0.00in /  0mm
06:19 32.2 °F /  0.1 °C 30.4 °F /  -0.9 °C 30.24in /  1023.9hPa North 3.0mph /  4.8km/h 5.0mph /  8km/h 93% 0.00in /  0mm
06:25 32.2 °F /  0.1 °C 30.4 °F /  -0.9 °C 30.24in /  1023.9hPa NE 1.0mph /  1.6km/h 3.0mph /  4.8km/h 93% 0.00in /  0mm
06:30 32.2 °F /  0.1 °C 30.4 °F /  -0.9 °C 30.24in /  1023.9hPa NNE 2.0mph /  3.2km/h 4.0mph /  6.4km/h 93% 0.00in /  0mm
06:34 32.1 °F /  0.1 °C 30.3 °F /  -0.9 °C 30.25in /  1024.3hPa NNE 2.0mph /  3.2km/h 4.0mph /  6.4km/h 93% 0.00in /  0mm
06:40 32.2 °F /  0.1 °C 30.4 °F /  -0.9 °C 30.25in /  1024.3hPa NNE 2.0mph /  3.2km/h 4.0mph /  6.4km/h 93% 0.00in /  0mm
06:45 32.2 °F /  0.1 °C 30.4 °F /  -0.9 °C 30.26in /  1024.6hPa NE 1.0mph /  1.6km/h 4.0mph /  6.4km/h 93% 0.00in /  0mm
06:50 32.2 °F /  0.1 °C 30.4 °F /  -0.9 °C 30.26in /  1024.6hPa Calm   2.0mph /  3.2km/h 93% 0.00in /  0mm
06:55 32.3 °F /  0.2 °C 30.5 °F /  -0.8 °C 30.26in /  1024.6hPa North 2.0mph /  3.2km/h 3.0mph /  4.8km/h 93% 0.00in /  0mm
07:00 32.3 °F /  0.2 °C 30.5 °F /  -0.8 °C 30.26in /  1024.6hPa NNW 2.0mph /  3.2km/h 3.0mph /  4.8km/h 93% 0.00in /  0mm
07:04 32.2 °F /  0.1 °C 30.4 °F /  -0.9 °C 30.26in /  1024.6hPa NNW 2.0mph /  3.2km/h 3.0mph /  4.8km/h 93% 0.00in /  0mm
07:09 32.2 °F /  0.1 °C 30.4 °F /  -0.9 °C 30.27in /  1024.9hPa North 2.0mph /  3.2km/h 4.0mph /  6.4km/h 93% 0.00in /  0mm
07:15 32.2 °F /  0.1 °C 30.4 °F /  -0.9 °C 30.27in /  1024.9hPa North 2.0mph /  3.2km/h 4.0mph /  6.4km/h 93% 0.00in /  0mm
07:20 32.2 °F /  0.1 °C 30.4 °F /  -0.9 °C 30.27in /  1024.9hPa North 1.0mph /  1.6km/h 3.0mph /  4.8km/h 93% 0.00in /  0mm
07:25 32.2 °F /  0.1 °C 30.4 °F /  -0.9 °C 30.27in /  1024.9hPa NNE 2.0mph /  3.2km/h 4.0mph /  6.4km/h 93% 0.00in /  0mm
07:30 32.2 °F /  0.1 °C 30.4 °F /  -0.9 °C 30.28in /  1025.3hPa NNE 2.0mph /  3.2km/h 4.0mph /  6.4km/h 93% 0.00in /  0mm
07:34 32.2 °F /  0.1 °C 30.4 °F /  -0.9 °C 30.28in /  1025.3hPa North 2.0mph /  3.2km/h 6.0mph /  9.7km/h 93% 0.00in /  0mm
07:40 32.2 °F /  0.1 °C 30.4 °F /  -0.9 °C 30.29in /  1025.6hPa North 4.0mph /  6.4km/h 5.0mph /  8km/h 93% 0.00in /  0mm
07:44 32.2 °F /  0.1 °C 30.1 °F /  -1.1 °C 30.29in /  1025.6hPa North 1.0mph /  1.6km/h 5.0mph /  8km/h 92% 0.00in /  0mm
07:49 32.2 °F /  0.1 °C 30.1 °F /  -1.1 °C 30.30in /  1026hPa North 2.0mph /  3.2km/h 8.0mph /  12.9km/h 92% 0.00in /  0mm
07:55 32.2 °F /  0.1 °C 30.1 °F /  -1.1 °C 30.30in /  1026hPa NNE 3.0mph /  4.8km/h 6.0mph /  9.7km/h 92% 0.00in /  0mm
08:00 32.2 °F /  0.1 °C 30.1 °F /  -1.1 °C 30.30in /  1026hPa North 2.0mph /  3.2km/h 7.0mph /  11.3km/h 92% 0.00in /  0mm
08:04 32.3 °F /  0.2 °C 30.2 °F /  -1 °C 30.30in /  1026hPa North 2.0mph /  3.2km/h 7.0mph /  11.3km/h 92% 0.00in /  0mm
08:10 32.3 °F /  0.2 °C 30.2 °F /  -1 °C 30.30in /  1026hPa North 2.0mph /  3.2km/h 4.0mph /  6.4km/h 92% 0.00in /  0mm
08:15 32.4 °F /  0.2 °C 30.3 °F /  -0.9 °C 30.30in /  1026hPa NNE 3.0mph /  4.8km/h 5.0mph /  8km/h 92% 0.00in /  0mm
08:20 32.4 °F /  0.2 °C 30.3 °F /  -0.9 °C 30.31in /  1026.3hPa NNE 3.0mph /  4.8km/h 7.0mph /  11.3km/h 92% 0.00in /  0mm
08:25 32.4 °F /  0.2 °C 30.3 °F /  -0.9 °C 30.31in /  1026.3hPa North 2.0mph /  3.2km/h 7.0mph /  11.3km/h 92% 0.00in /  0mm
08:30 32.5 °F /  0.3 °C 30.2 °F /  -1 °C 30.31in /  1026.3hPa North 2.0mph /  3.2km/h 4.0mph /  6.4km/h 91% 0.00in /  0mm
08:34 32.5 °F /  0.3 °C 30.2 °F /  -1 °C 30.31in /  1026.3hPa North 3.0mph /  4.8km/h 4.0mph /  6.4km/h 91% 0.00in /  0mm
08:40 32.5 °F /  0.3 °C 30.2 °F /  -1 °C 30.31in /  1026.3hPa North 2.0mph /  3.2km/h 4.0mph /  6.4km/h 91% 0.00in /  0mm
08:45 32.6 °F /  0.3 °C 30.3 °F /  -0.9 °C 30.31in /  1026.3hPa NNE 2.0mph /  3.2km/h 4.0mph /  6.4km/h 91% 0.00in /  0mm
08:50 32.5 °F /  0.3 °C 30.2 °F /  -1 °C 30.31in /  1026.3hPa NNE 3.0mph /  4.8km/h 5.0mph /  8km/h 91% 0.00in /  0mm
08:54 32.6 °F /  0.3 °C 30.0 °F /  -1.1 °C 30.31in /  1026.3hPa North 3.0mph /  4.8km/h 6.0mph /  9.7km/h 90% 0.00in /  0mm
09:00 32.6 °F /  0.3 °C 30.0 °F /  -1.1 °C 30.32in /  1026.6hPa NNE 3.0mph /  4.8km/h 5.0mph /  8km/h 90% 0.00in /  0mm
09:05 32.7 °F /  0.4 °C 30.1 °F /  -1.1 °C 30.32in /  1026.6hPa NNE 2.0mph /  3.2km/h 4.0mph /  6.4km/h 90% 0.00in /  0mm
09:09 32.8 °F /  0.4 °C 30.2 °F /  -1 °C 30.32in /  1026.6hPa NNE 2.0mph /  3.2km/h 5.0mph /  8km/h 90% 0.00in /  0mm
09:14 32.9 °F /  0.5 °C 30.3 °F /  -0.9 °C 30.32in /  1026.6hPa NNE 3.0mph /  4.8km/h 5.0mph /  8km/h 90% 0.00in /  0mm
09:20 32.9 °F /  0.5 °C 30.3 °F /  -0.9 °C 30.33in /  1027hPa NNE 3.0mph /  4.8km/h 5.0mph /  8km/h 90% 0.00in /  0mm
09:25 33.0 °F /  0.6 °C 30.1 °F /  -1.1 °C 30.33in /  1027hPa NNE 3.0mph /  4.8km/h 5.0mph /  8km/h 89% 0.00in /  0mm
09:30 33.2 °F /  0.7 °C 30.3 °F /  -0.9 °C 30.33in /  1027hPa NNE 3.0mph /  4.8km/h 5.0mph /  8km/h 89% 0.00in /  0mm
09:35 33.3 °F /  0.7 °C 30.4 °F /  -0.9 °C 30.33in /  1027hPa NNE 3.0mph /  4.8km/h 6.0mph /  9.7km/h 89% 0.00in /  0mm
09:39 33.5 °F /  0.8 °C 30.6 °F /  -0.8 °C 30.33in /  1027hPa NNE 2.0mph /  3.2km/h 5.0mph /  8km/h 89% 0.00in /  0mm
09:44 33.6 °F /  0.9 °C 30.4 °F /  -0.9 °C 30.33in /  1027hPa NNE 3.0mph /  4.8km/h 5.0mph /  8km/h 88% 0.00in /  0mm
09:49 33.7 °F /  0.9 °C 30.5 °F /  -0.8 °C 30.34in /  1027.3hPa NNE 3.0mph /  4.8km/h 5.0mph /  8km/h 88% 0.00in /  0mm
09:54 33.8 °F /  1 °C 30.3 °F /  -0.9 °C 30.34in /  1027.3hPa NNE 2.0mph /  3.2km/h 8.0mph /  12.9km/h 87% 0.00in /  0mm
10:00 34.0 °F /  1.1 °C 30.5 °F /  -0.8 °C 30.34in /  1027.3hPa North 3.0mph /  4.8km/h 6.0mph /  9.7km/h 87% 0.00in /  0mm
10:05 34.1 °F /  1.2 °C 30.6 °F /  -0.8 °C 30.34in /  1027.3hPa NNE 3.0mph /  4.8km/h 6.0mph /  9.7km/h 87% 0.00in /  0mm
10:09 34.1 °F /  1.2 °C 30.4 °F /  -0.9 °C 30.34in /  1027.3hPa NNE 3.0mph /  4.8km/h 5.0mph /  8km/h 86% 0.00in /  0mm
10:15 34.3 °F /  1.3 °C 30.5 °F /  -0.8 °C 30.34in /  1027.3hPa North 3.0mph /  4.8km/h 5.0mph /  8km/h 86% 0.00in /  0mm
10:20 34.3 °F /  1.3 °C 30.5 °F /  -0.8 °C 30.34in /  1027.3hPa NNE 3.0mph /  4.8km/h 7.0mph /  11.3km/h 86% 0.00in /  0mm
10:24 34.4 °F /  1.3 °C 30.6 °F /  -0.8 °C 30.34in /  1027.3hPa NNE 3.0mph /  4.8km/h 7.0mph /  11.3km/h 86% 0.00in /  0mm
10:30 34.6 °F /  1.4 °C 30.8 °F /  -0.7 °C 30.34in /  1027.3hPa NNE 3.0mph /  4.8km/h 6.0mph /  9.7km/h 86% 0.00in /  0mm
10:35 34.7 °F /  1.5 °C 30.9 °F /  -0.6 °C 30.35in /  1027.7hPa NNE 3.0mph /  4.8km/h 6.0mph /  9.7km/h 86% 0.00in /  0mm
10:39 34.7 °F /  1.5 °C 30.7 °F /  -0.7 °C 30.34in /  1027.3hPa North 3.0mph /  4.8km/h 5.0mph /  8km/h 85% 0.00in /  0mm
10:44 35.0 °F /  1.7 °C 30.9 °F /  -0.6 °C 30.35in /  1027.7hPa NNE 3.0mph /  4.8km/h 6.0mph /  9.7km/h 85% 0.00in /  0mm
10:49 35.1 °F /  1.7 °C 30.8 °F /  -0.7 °C 30.35in /  1027.7hPa NNE 2.0mph /  3.2km/h 7.0mph /  11.3km/h 84% 0.00in /  0mm
10:54 35.3 °F /  1.8 °C 30.7 °F /  -0.7 °C 30.35in /  1027.7hPa NNE 2.0mph /  3.2km/h 7.0mph /  11.3km/h 83% 0.00in /  0mm
10:59 35.3 °F /  1.8 °C 30.7 °F /  -0.7 °C 30.35in /  1027.7hPa NNE 3.0mph /  4.8km/h 6.0mph /  9.7km/h 83% 0.00in /  0mm
11:14 36.4 °F /  2.4 °C 31.4 °F /  -0.3 °C 30.34in /  1027.3hPa NE 4.0mph /  6.4km/h 9.0mph /  14.5km/h 82% 0.00in /  0mm
11:20 36.8 °F /  2.7 °C 31.2 °F /  -0.4 °C 30.34in /  1027.3hPa NE 4.0mph /  6.4km/h 9.0mph /  14.5km/h 80% 0.00in /  0mm
11:24 36.7 °F /  2.6 °C 31.1 °F /  -0.5 °C 30.34in /  1027.3hPa NE 4.0mph /  6.4km/h 10.0mph /  16.1km/h 80% 0.00in /  0mm
11:30 36.9 °F /  2.7 °C 31.0 °F /  -0.6 °C 30.34in /  1027.3hPa NE 5.0mph /  8km/h 10.0mph /  16.1km/h 79% 0.00in /  0mm
11:35 36.9 °F /  2.7 °C 31.0 °F /  -0.6 °C 30.34in /  1027.3hPa NE 4.0mph /  6.4km/h 9.0mph /  14.5km/h 79% 0.00in /  0mm
11:40 36.9 °F /  2.7 °C 31.0 °F /  -0.6 °C 30.33in /  1027hPa NE 4.0mph /  6.4km/h 8.0mph /  12.9km/h 79% 0.00in /  0mm
11:44 37.0 °F /  2.8 °C 30.8 °F /  -0.7 °C 30.34in /  1027.3hPa NNE 3.0mph /  4.8km/h 8.0mph /  12.9km/h 78% 0.00in /  0mm
11:49 37.0 °F /  2.8 °C 30.8 °F /  -0.7 °C 30.34in /  1027.3hPa NE 4.0mph /  6.4km/h 12.0mph /  19.3km/h 78% 0.00in /  0mm
11:54 36.9 °F /  2.7 °C 30.7 °F /  -0.7 °C 30.34in /  1027.3hPa ENE 4.0mph /  6.4km/h 8.0mph /  12.9km/h 78% 0.00in /  0mm
12:00 37.4 °F /  3 °C 31.2 °F /  -0.4 °C 30.33in /  1027hPa NNE 4.0mph /  6.4km/h 7.0mph /  11.3km/h 78% 0.00in /  0mm
12:04 38.1 °F /  3.4 °C 31.2 °F /  -0.4 °C 30.33in /  1027hPa East 1.0mph /  1.6km/h 7.0mph /  11.3km/h 76% 0.00in /  0mm
12:09 38.1 °F /  3.4 °C 30.9 °F /  -0.6 °C 30.33in /  1027hPa NE 1.0mph /  1.6km/h 8.0mph /  12.9km/h 75% 0.00in /  0mm
12:19 37.7 °F /  3.2 °C 30.8 °F /  -0.7 °C 30.33in /  1027hPa NE 4.0mph /  6.4km/h 8.0mph /  12.9km/h 76% 0.00in /  0mm
12:24 37.5 °F /  3.1 °C 30.6 °F /  -0.8 °C 30.34in /  1027.3hPa NNE 4.0mph /  6.4km/h 8.0mph /  12.9km/h 76% 0.00in /  0mm
12:29 37.5 °F /  3.1 °C 30.6 °F /  -0.8 °C 30.34in /  1027.3hPa NNE 4.0mph /  6.4km/h 6.0mph /  9.7km/h 76% 0.00in /  0mm
12:34 37.8 °F /  3.2 °C 30.9 °F /  -0.6 °C 30.34in /  1027.3hPa NNE 4.0mph /  6.4km/h 7.0mph /  11.3km/h 76% 0.00in /  0mm
12:39 37.9 °F /  3.3 °C 31.0 °F /  -0.6 °C 30.33in /  1027hPa NNE 3.0mph /  4.8km/h 6.0mph /  9.7km/h 76% 0.00in /  0mm
12:44 38.2 °F /  3.4 °C 31.0 °F /  -0.6 °C 30.33in /  1027hPa NE 3.0mph /  4.8km/h 5.0mph /  8km/h 75% 0.00in /  0mm
12:49 38.3 °F /  3.5 °C 31.1 °F /  -0.5 °C 30.33in /  1027hPa NNE 3.0mph /  4.8km/h 9.0mph /  14.5km/h 75% 0.00in /  0mm
12:54 38.3 °F /  3.5 °C 31.1 °F /  -0.5 °C 30.33in /  1027hPa NE 4.0mph /  6.4km/h 9.0mph /  14.5km/h 75% 0.00in /  0mm
13:00 38.3 °F /  3.5 °C 30.7 °F /  -0.7 °C 30.33in /  1027hPa NNE 3.0mph /  4.8km/h 8.0mph /  12.9km/h 74% 0.00in /  0mm
13:04 38.4 °F /  3.6 °C 30.8 °F /  -0.7 °C 30.33in /  1027hPa NNE 3.0mph /  4.8km/h 6.0mph /  9.7km/h 74% 0.00in /  0mm
13:09 38.3 °F /  3.5 °C 30.7 °F /  -0.7 °C 30.33in /  1027hPa NE 2.0mph /  3.2km/h 7.0mph /  11.3km/h 74% 0.00in /  0mm
13:15 38.5 °F /  3.6 °C 30.9 °F /  -0.6 °C 30.33in /  1027hPa NNE 2.0mph /  3.2km/h 8.0mph /  12.9km/h 74% 0.00in /  0mm
13:20 38.8 °F /  3.8 °C 30.5 °F /  -0.8 °C 30.33in /  1027hPa NE 3.0mph /  4.8km/h 8.0mph /  12.9km/h 72% 0.00in /  0mm
13:25 38.9 °F /  3.8 °C 30.6 °F /  -0.8 °C 30.33in /  1027hPa NE 3.0mph /  4.8km/h 6.0mph /  9.7km/h 72% 0.00in /  0mm
13:29 38.9 °F /  3.8 °C 30.6 °F /  -0.8 °C 30.33in /  1027hPa ENE 2.0mph /  3.2km/h 5.0mph /  8km/h 72% 0.00in /  0mm
13:35 38.6 °F /  3.7 °C 30.7 °F /  -0.7 °C 30.34in /  1027.3hPa ENE 2.0mph /  3.2km/h 5.0mph /  8km/h 73% 0.00in /  0mm
13:39 38.4 °F /  3.6 °C 30.5 °F /  -0.8 °C 30.34in /  1027.3hPa NE 2.0mph /  3.2km/h 5.0mph /  8km/h 73% 0.00in /  0mm
13:44 38.4 °F /  3.6 °C 30.5 °F /  -0.8 °C 30.33in /  1027hPa NE 2.0mph /  3.2km/h 8.0mph /  12.9km/h 73% 0.00in /  0mm
13:49 38.5 °F /  3.6 °C 30.6 °F /  -0.8 °C 30.33in /  1027hPa NE 2.0mph /  3.2km/h 7.0mph /  11.3km/h 73% 0.00in /  0mm
13:54 38.5 °F /  3.6 °C 30.3 °F /  -0.9 °C 30.33in /  1027hPa Calm   4.0mph /  6.4km/h 72% 0.00in /  0mm
13:59 38.7 °F /  3.7 °C 30.4 °F /  -0.9 °C 30.33in /  1027hPa NNE 1.0mph /  1.6km/h 6.0mph /  9.7km/h 72% 0.00in /  0mm
14:04 38.8 °F /  3.8 °C 30.5 °F /  -0.8 °C 30.33in /  1027hPa NE 2.0mph /  3.2km/h 6.0mph /  9.7km/h 72% 0.00in /  0mm
14:09 39.1 °F /  3.9 °C 30.5 °F /  -0.8 °C 30.33in /  1027hPa NNE 2.0mph /  3.2km/h 5.0mph /  8km/h 71% 0.00in /  0mm
14:14 39.1 °F /  3.9 °C 30.5 °F /  -0.8 °C 30.33in /  1027hPa NNE 1.0mph /  1.6km/h 4.0mph /  6.4km/h 71% 0.00in /  0mm
14:19 39.1 °F /  3.9 °C 30.8 °F /  -0.7 °C 30.33in /  1027hPa NW 1.0mph /  1.6km/h 5.0mph /  8km/h 72% 0.00in /  0mm
14:24 39.1 °F /  3.9 °C 30.5 °F /  -0.8 °C 30.33in /  1027hPa NNW 1.0mph /  1.6km/h 5.0mph /  8km/h 71% 0.00in /  0mm
14:30 39.0 °F /  3.9 °C 30.0 °F /  -1.1 °C 30.32in /  1026.6hPa North 2.0mph /  3.2km/h 5.0mph /  8km/h 70% 0.00in /  0mm
14:34 39.2 °F /  4 °C 30.2 °F /  -1 °C 30.32in /  1026.6hPa NNE 2.0mph /  3.2km/h 4.0mph /  6.4km/h 70% 0.00in /  0mm
14:39 39.2 °F /  4 °C 30.6 °F /  -0.8 °C 30.32in /  1026.6hPa NE 2.0mph /  3.2km/h 5.0mph /  8km/h 71% 0.00in /  0mm
14:44 39.4 °F /  4.1 °C 30.4 °F /  -0.9 °C 30.32in /  1026.6hPa NNE 2.0mph /  3.2km/h 5.0mph /  8km/h 70% 0.00in /  0mm
14:49 39.5 °F /  4.2 °C 30.5 °F /  -0.8 °C 30.32in /  1026.6hPa NW 2.0mph /  3.2km/h 4.0mph /  6.4km/h 70% 0.00in /  0mm
14:55 39.3 °F /  4.1 °C 30.0 °F /  -1.1 °C 30.32in /  1026.6hPa NW 2.0mph /  3.2km/h 5.0mph /  8km/h 69% 0.00in /  0mm
14:59 39.3 °F /  4.1 °C 30.0 °F /  -1.1 °C 30.32in /  1026.6hPa Calm     69% 0.00in /  0mm
15:04 39.5 °F /  4.2 °C 30.5 °F /  -0.8 °C 30.32in /  1026.6hPa Calm   4.0mph /  6.4km/h 70% 0.00in /  0mm
15:09 39.4 °F /  4.1 °C 30.1 °F /  -1.1 °C 30.32in /  1026.6hPa NE 1.0mph /  1.6km/h 5.0mph /  8km/h 69% 0.00in /  0mm
15:14 39.7 °F /  4.3 °C 30.7 °F /  -0.7 °C 30.32in /  1026.6hPa NNW 3.0mph /  4.8km/h 4.0mph /  6.4km/h 70% 0.00in /  0mm
15:19 39.4 °F /  4.1 °C 30.4 °F /  -0.9 °C 30.32in /  1026.6hPa West 1.0mph /  1.6km/h 4.0mph /  6.4km/h 70% 0.00in /  0mm
15:24 39.5 °F /  4.2 °C 30.5 °F /  -0.8 °C 30.32in /  1026.6hPa WNW 2.0mph /  3.2km/h 3.0mph /  4.8km/h 70% 0.00in /  0mm
15:29 39.5 °F /  4.2 °C 30.5 °F /  -0.8 °C 30.32in /  1026.6hPa NNW 2.0mph /  3.2km/h 5.0mph /  8km/h 70% 0.00in /  0mm
15:34 39.7 °F /  4.3 °C 30.7 °F /  -0.7 °C 30.32in /  1026.6hPa WNW 2.0mph /  3.2km/h 4.0mph /  6.4km/h 70% 0.00in /  0mm
15:39 39.6 °F /  4.2 °C 30.6 °F /  -0.8 °C 30.32in /  1026.6hPa WNW 2.0mph /  3.2km/h 4.0mph /  6.4km/h 70% 0.00in /  0mm
15:44 39.5 °F /  4.2 °C 30.2 °F /  -1 °C 30.32in /  1026.6hPa WNW 3.0mph /  4.8km/h 7.0mph /  11.3km/h 69% 0.00in /  0mm
15:49 39.5 °F /  4.2 °C 30.5 °F /  -0.8 °C 30.32in /  1026.6hPa WNW 3.0mph /  4.8km/h 7.0mph /  11.3km/h 70% 0.00in /  0mm
15:54 39.3 °F /  4.1 °C 30.3 °F /  -0.9 °C 30.32in /  1026.6hPa WNW 2.0mph /  3.2km/h 6.0mph /  9.7km/h 70% 0.00in /  0mm
16:00 39.4 °F /  4.1 °C 30.4 °F /  -0.9 °C 30.32in /  1026.6hPa WNW 3.0mph /  4.8km/h 7.0mph /  11.3km/h 70% 0.00in /  0mm
16:05 39.6 °F /  4.2 °C 30.6 °F /  -0.8 °C 30.32in /  1026.6hPa WNW 2.0mph /  3.2km/h 7.0mph /  11.3km/h 70% 0.00in /  0mm
16:10 39.6 °F /  4.2 °C 30.6 °F /  -0.8 °C 30.31in /  1026.3hPa West 5.0mph /  8km/h 6.0mph /  9.7km/h 70% 0.00in /  0mm
16:14 39.4 °F /  4.1 °C 30.4 °F /  -0.9 °C 30.31in /  1026.3hPa West 3.0mph /  4.8km/h 7.0mph /  11.3km/h 70% 0.00in /  0mm
16:19 39.3 °F /  4.1 °C 30.3 °F /  -0.9 °C 30.31in /  1026.3hPa WNW 2.0mph /  3.2km/h 4.0mph /  6.4km/h 70% 0.00in /  0mm
16:24 39.5 °F /  4.2 °C 30.5 °F /  -0.8 °C 30.31in /  1026.3hPa West 3.0mph /  4.8km/h 3.0mph /  4.8km/h 70% 0.00in /  0mm
16:29 39.3 °F /  4.1 °C 30.0 °F /  -1.1 °C 30.32in /  1026.6hPa West 1.0mph /  1.6km/h 6.0mph /  9.7km/h 69% 0.00in /  0mm
16:34 39.4 °F /  4.1 °C 30.4 °F /  -0.9 °C 30.31in /  1026.3hPa NW 2.0mph /  3.2km/h 6.0mph /  9.7km/h 70% 0.00in /  0mm
16:39 39.3 °F /  4.1 °C 30.0 °F /  -1.1 °C 30.31in /  1026.3hPa Calm   4.0mph /  6.4km/h 69% 0.00in /  0mm
16:44 39.2 °F /  4 °C 30.2 °F /  -1 °C 30.31in /  1026.3hPa West 3.0mph /  4.8km/h 6.0mph /  9.7km/h 70% 0.00in /  0mm
16:49 39.2 °F /  4 °C 30.6 °F /  -0.8 °C 30.31in /  1026.3hPa West 3.0mph /  4.8km/h 6.0mph /  9.7km/h 71% 0.00in /  0mm
16:54 39.2 °F /  4 °C 30.6 °F /  -0.8 °C 30.31in /  1026.3hPa West 3.0mph /  4.8km/h 6.0mph /  9.7km/h 71% 0.00in /  0mm
16:59 38.5 °F /  3.6 °C 30.3 °F /  -0.9 °C 30.31in /  1026.3hPa West 3.0mph /  4.8km/h 6.0mph /  9.7km/h 72% 0.00in /  0mm
17:04 38.2 °F /  3.4 °C 30.6 °F /  -0.8 °C 30.31in /  1026.3hPa West 2.0mph /  3.2km/h 6.0mph /  9.7km/h 74% 0.00in /  0mm
17:09 37.8 °F /  3.2 °C 30.6 °F /  -0.8 °C 30.31in /  1026.3hPa SW 8.0mph /  12.9km/h 8.0mph /  12.9km/h 75% 0.00in /  0mm
17:14 37.5 °F /  3.1 °C 30.6 °F /  -0.8 °C 30.31in /  1026.3hPa WSW 4.0mph /  6.4km/h 8.0mph /  12.9km/h 76% 0.00in /  0mm
17:19 37.3 °F /  2.9 °C 30.7 °F /  -0.7 °C 30.31in /  1026.3hPa WSW 4.0mph /  6.4km/h 8.0mph /  12.9km/h 77% 0.00in /  0mm
17:24 37.3 °F /  2.9 °C 30.7 °F /  -0.7 °C 30.31in /  1026.3hPa SSW 3.0mph /  4.8km/h 8.0mph /  12.9km/h 77% 0.00in /  0mm
17:29 37.1 °F /  2.8 °C 30.9 °F /  -0.6 °C 30.31in /  1026.3hPa SW 4.0mph /  6.4km/h 7.0mph /  11.3km/h 78% 0.00in /  0mm
17:34 37.0 °F /  2.8 °C 31.1 °F /  -0.5 °C 30.31in /  1026.3hPa SSW 3.0mph /  4.8km/h 8.0mph /  12.9km/h 79% 0.00in /  0mm
17:39 36.9 °F /  2.7 °C 31.0 °F /  -0.6 °C 30.31in /  1026.3hPa SW 6.0mph /  9.7km/h 6.0mph /  9.7km/h 79% 0.00in /  0mm
17:44 37.0 °F /  2.8 °C 31.1 °F /  -0.5 °C 30.31in /  1026.3hPa SW 3.0mph /  4.8km/h 6.0mph /  9.7km/h 79% 0.00in /  0mm
17:49 37.1 °F /  2.8 °C 31.2 °F /  -0.4 °C 30.31in /  1026.3hPa SW 3.0mph /  4.8km/h 6.0mph /  9.7km/h 79% 0.00in /  0mm
17:54 37.1 °F /  2.8 °C 31.2 °F /  -0.4 °C 30.30in /  1026hPa SW 3.0mph /  4.8km/h 5.0mph /  8km/h 79% 0.00in /  0mm
17:59 37.2 °F /  2.9 °C 31.3 °F /  -0.4 °C 30.31in /  1026.3hPa WSW 2.0mph /  3.2km/h 4.0mph /  6.4km/h 79% 0.00in /  0mm
18:05 37.2 °F /  2.9 °C 31.3 °F /  -0.4 °C 30.31in /  1026.3hPa SW 2.0mph /  3.2km/h 4.0mph /  6.4km/h 79% 0.00in /  0mm
18:09 37.1 °F /  2.8 °C 31.2 °F /  -0.4 °C 30.31in /  1026.3hPa WSW 4.0mph /  6.4km/h 6.0mph /  9.7km/h 79% 0.00in /  0mm
18:14 36.9 °F /  2.7 °C 31.0 °F /  -0.6 °C 30.31in /  1026.3hPa SW 1.0mph /  1.6km/h 4.0mph /  6.4km/h 79% 0.00in /  0mm
18:19 37.0 °F /  2.8 °C 31.1 °F /  -0.5 °C 30.31in /  1026.3hPa SW 2.0mph /  3.2km/h 4.0mph /  6.4km/h 79% 0.00in /  0mm
18:24 37.2 °F /  2.9 °C 31.0 °F /  -0.6 °C 30.31in /  1026.3hPa SW 3.0mph /  4.8km/h 7.0mph /  11.3km/h 78% 0.00in /  0mm
18:29 37.1 °F /  2.8 °C 30.9 °F /  -0.6 °C 30.31in /  1026.3hPa SW 2.0mph /  3.2km/h 7.0mph /  11.3km/h 78% 0.00in /  0mm
18:34 37.0 °F /  2.8 °C 30.5 °F /  -0.8 °C 30.31in /  1026.3hPa SW 3.0mph /  4.8km/h 7.0mph /  11.3km/h 77% 0.00in /  0mm
18:39 37.0 °F /  2.8 °C 30.5 °F /  -0.8 °C 30.31in /  1026.3hPa WSW 3.0mph /  4.8km/h 5.0mph /  8km/h 77% 0.00in /  0mm
18:44 36.8 °F /  2.7 °C 30.6 °F /  -0.8 °C 30.31in /  1026.3hPa SW 3.0mph /  4.8km/h 5.0mph /  8km/h 78% 0.00in /  0mm
18:49 36.4 °F /  2.4 °C 30.5 °F /  -0.8 °C 30.31in /  1026.3hPa SW 3.0mph /  4.8km/h 5.0mph /  8km/h 79% 0.00in /  0mm
18:54 36.2 °F /  2.3 °C 30.6 °F /  -0.8 °C 30.31in /  1026.3hPa SSW 2.0mph /  3.2km/h 5.0mph /  8km/h 80% 0.00in /  0mm
18:59 36.1 °F /  2.3 °C 30.5 °F /  -0.8 °C 30.31in /  1026.3hPa WSW 3.0mph /  4.8km/h 5.0mph /  8km/h 80% 0.00in /  0mm
19:04 36.0 °F /  2.2 °C 30.4 °F /  -0.9 °C 30.31in /  1026.3hPa SW 1.0mph /  1.6km/h 6.0mph /  9.7km/h 80% 0.00in /  0mm
19:09 35.8 °F /  2.1 °C 30.2 °F /  -1 °C 30.31in /  1026.3hPa WSW 4.0mph /  6.4km/h 6.0mph /  9.7km/h 80% 0.00in /  0mm
19:14 35.8 °F /  2.1 °C 30.2 °F /  -1 °C 30.32in /  1026.6hPa SSW 2.0mph /  3.2km/h 5.0mph /  8km/h 80% 0.00in /  0mm
19:19 35.7 °F /  2.1 °C 30.1 °F /  -1.1 °C 30.32in /  1026.6hPa WSW 3.0mph /  4.8km/h 7.0mph /  11.3km/h 80% 0.00in /  0mm
19:24 35.6 °F /  2 °C 30.0 °F /  -1.1 °C 30.32in /  1026.6hPa SW 4.0mph /  6.4km/h 7.0mph /  11.3km/h 80% 0.00in /  0mm
19:29 35.4 °F /  1.9 °C 29.8 °F /  -1.2 °C 30.32in /  1026.6hPa SW 3.0mph /  4.8km/h 6.0mph /  9.7km/h 80% 0.00in /  0mm
19:34 35.3 °F /  1.8 °C 30.1 °F /  -1.1 °C 30.32in /  1026.6hPa SW 3.0mph /  4.8km/h 6.0mph /  9.7km/h 81% 0.00in /  0mm
19:39 35.1 °F /  1.7 °C 29.6 °F /  -1.3 °C 30.32in /  1026.6hPa SW 2.0mph /  3.2km/h 5.0mph /  8km/h 80% 0.00in /  0mm
19:44 34.8 °F /  1.6 °C 29.6 °F /  -1.3 °C 30.31in /  1026.3hPa Calm   3.0mph /  4.8km/h 81% 0.00in /  0mm
19:49 34.6 °F /  1.4 °C 29.7 °F /  -1.3 °C 30.31in /  1026.3hPa SW 1.0mph /  1.6km/h 3.0mph /  4.8km/h 82% 0.00in /  0mm
19:59 34.0 °F /  1.1 °C 29.4 °F /  -1.4 °C 30.31in /  1026.3hPa SW 2.0mph /  3.2km/h 4.0mph /  6.4km/h 83% 0.00in /  0mm
20:04 33.9 °F /  1.1 °C 29.3 °F /  -1.5 °C 30.31in /  1026.3hPa SW 3.0mph /  4.8km/h 4.0mph /  6.4km/h 83% 0.00in /  0mm
20:09 33.8 °F /  1 °C 29.2 °F /  -1.6 °C 30.31in /  1026.3hPa WSW 3.0mph /  4.8km/h 5.0mph /  8km/h 83% 0.00in /  0mm
20:14 33.5 °F /  0.8 °C 29.2 °F /  -1.6 °C 30.31in /  1026.3hPa SW 4.0mph /  6.4km/h 5.0mph /  8km/h 84% 0.00in /  0mm
20:19 33.5 °F /  0.8 °C 29.2 °F /  -1.6 °C 30.31in /  1026.3hPa South 2.0mph /  3.2km/h 6.0mph /  9.7km/h 84% 0.00in /  0mm
20:24 33.4 °F /  0.8 °C 29.1 °F /  -1.6 °C 30.31in /  1026.3hPa SW 2.0mph /  3.2km/h 6.0mph /  9.7km/h 84% 0.00in /  0mm
20:29 33.2 °F /  0.7 °C 28.9 °F /  -1.7 °C 30.31in /  1026.3hPa SW 2.0mph /  3.2km/h 4.0mph /  6.4km/h 84% 0.00in /  0mm
20:34 33.0 °F /  0.6 °C 29.0 °F /  -1.7 °C 30.31in /  1026.3hPa SW 2.0mph /  3.2km/h 4.0mph /  6.4km/h 85% 0.00in /  0mm
20:39 32.7 °F /  0.4 °C 28.7 °F /  -1.8 °C 30.31in /  1026.3hPa SSW 2.0mph /  3.2km/h 4.0mph /  6.4km/h 85% 0.00in /  0mm
20:44 32.5 °F /  0.3 °C 28.8 °F /  -1.8 °C 30.31in /  1026.3hPa SW 3.0mph /  4.8km/h 3.0mph /  4.8km/h 86% 0.00in /  0mm
20:49 32.4 °F /  0.2 °C 28.7 °F /  -1.8 °C 30.31in /  1026.3hPa Calm   3.0mph /  4.8km/h 86% 0.00in /  0mm
20:54 32.2 °F /  0.1 °C 28.5 °F /  -1.9 °C 30.31in /  1026.3hPa SW 1.0mph /  1.6km/h 3.0mph /  4.8km/h 86% 0.00in /  0mm
20:59 31.9 °F /  -0.1 °C 28.2 °F /  -2.1 °C 30.32in /  1026.6hPa SW 1.0mph /  1.6km/h 3.0mph /  4.8km/h 86% 0.00in /  0mm
21:04 31.7 °F /  -0.2 °C 28.3 °F /  -2.1 °C 30.31in /  1026.3hPa SW 1.0mph /  1.6km/h 3.0mph /  4.8km/h 87% 0.00in /  0mm
21:09 31.8 °F /  -0.1 °C 28.4 °F /  -2 °C 30.31in /  1026.3hPa SW 2.0mph /  3.2km/h 3.0mph /  4.8km/h 87% 0.00in /  0mm
21:14 31.8 °F /  -0.1 °C 28.4 °F /  -2 °C 30.32in /  1026.6hPa SW 2.0mph /  3.2km/h 4.0mph /  6.4km/h 87% 0.00in /  0mm
21:19 31.7 °F /  -0.2 °C 28.6 °F /  -1.9 °C 30.32in /  1026.6hPa SW 1.0mph /  1.6km/h 3.0mph /  4.8km/h 88% 0.00in /  0mm
21:24 31.7 °F /  -0.2 °C 28.6 °F /  -1.9 °C 30.32in /  1026.6hPa SW 1.0mph /  1.6km/h 3.0mph /  4.8km/h 88% 0.00in /  0mm
21:29 31.6 °F /  -0.2 °C 28.5 °F /  -1.9 °C 30.32in /  1026.6hPa SW 1.0mph /  1.6km/h 3.0mph /  4.8km/h 88% 0.00in /  0mm
21:34 31.4 °F /  -0.3 °C 28.3 °F /  -2.1 °C 30.32in /  1026.6hPa SW 1.0mph /  1.6km/h 3.0mph /  4.8km/h 88% 0.00in /  0mm
21:39 31.3 °F /  -0.4 °C 28.2 °F /  -2.1 °C 30.32in /  1026.6hPa SW 1.0mph /  1.6km/h 3.0mph /  4.8km/h 88% 0.00in /  0mm
21:44 31.3 °F /  -0.4 °C 28.2 °F /  -2.1 °C 30.32in /  1026.6hPa SW 1.0mph /  1.6km/h 2.0mph /  3.2km/h 88% 0.00in /  0mm
21:49 31.6 °F /  -0.2 °C 28.5 °F /  -1.9 °C 30.32in /  1026.6hPa SW 2.0mph /  3.2km/h 6.0mph /  9.7km/h 88% 0.00in /  0mm
21:54 31.7 °F /  -0.2 °C 28.8 °F /  -1.8 °C 30.32in /  1026.6hPa SSW 1.0mph /  1.6km/h 4.0mph /  6.4km/h 89% 0.00in /  0mm
21:59 31.7 °F /  -0.2 °C 28.8 °F /  -1.8 °C 30.32in /  1026.6hPa SW 3.0mph /  4.8km/h 6.0mph /  9.7km/h 89% 0.00in /  0mm
22:04 31.7 °F /  -0.2 °C 28.8 °F /  -1.8 °C 30.32in /  1026.6hPa SW 3.0mph /  4.8km/h 6.0mph /  9.7km/h 89% 0.00in /  0mm
22:09 31.6 °F /  -0.2 °C 28.7 °F /  -1.8 °C 30.32in /  1026.6hPa SW 2.0mph /  3.2km/h 6.0mph /  9.7km/h 89% 0.00in /  0mm
22:14 31.6 °F /  -0.2 °C 28.7 °F /  -1.8 °C 30.32in /  1026.6hPa SW 3.0mph /  4.8km/h 6.0mph /  9.7km/h 89% 0.00in /  0mm
22:19 31.5 °F /  -0.3 °C 28.4 °F /  -2 °C 30.31in /  1026.3hPa WSW 3.0mph /  4.8km/h 6.0mph /  9.7km/h 88% 0.00in /  0mm
22:24 31.4 °F /  -0.3 °C 28.3 °F /  -2.1 °C 30.31in /  1026.3hPa SW 2.0mph /  3.2km/h 6.0mph /  9.7km/h 88% 0.00in /  0mm
22:29 31.4 °F /  -0.3 °C 28.3 °F /  -2.1 °C 30.31in /  1026.3hPa SW 3.0mph /  4.8km/h 6.0mph /  9.7km/h 88% 0.00in /  0mm
22:34 31.2 °F /  -0.4 °C 28.1 °F /  -2.2 °C 30.31in /  1026.3hPa SW 2.0mph /  3.2km/h 5.0mph /  8km/h 88% 0.00in /  0mm
22:39 31.1 °F /  -0.5 °C 28.0 °F /  -2.2 °C 30.31in /  1026.3hPa SW 2.0mph /  3.2km/h 4.0mph /  6.4km/h 88% 0.00in /  0mm
22:44 30.9 °F /  -0.6 °C 27.8 °F /  -2.3 °C 30.31in /  1026.3hPa SW 2.0mph /  3.2km/h 4.0mph /  6.4km/h 88% 0.00in /  0mm
22:49 30.9 °F /  -0.6 °C 27.8 °F /  -2.3 °C 30.31in /  1026.3hPa SW 2.0mph /  3.2km/h 3.0mph /  4.8km/h 88% 0.00in /  0mm
22:54 30.6 °F /  -0.8 °C 27.5 °F /  -2.5 °C 30.31in /  1026.3hPa SW 2.0mph /  3.2km/h 2.0mph /  3.2km/h 88% 0.00in /  0mm
22:59 30.5 °F /  -0.8 °C 27.6 °F /  -2.4 °C 30.31in /  1026.3hPa WSW 1.0mph /  1.6km/h 3.0mph /  4.8km/h 89% 0.00in /  0mm
23:04 30.4 °F /  -0.9 °C 27.5 °F /  -2.5 °C 30.31in /  1026.3hPa WSW 1.0mph /  1.6km/h 3.0mph /  4.8km/h 89% 0.00in /  0mm
23:09 30.3 °F /  -0.9 °C 27.4 °F /  -2.6 °C 30.31in /  1026.3hPa WSW 1.0mph /  1.6km/h 3.0mph /  4.8km/h 89% 0.00in /  0mm
23:14 30.3 °F /  -0.9 °C 27.4 °F /  -2.6 °C 30.31in /  1026.3hPa SW 1.0mph /  1.6km/h 3.0mph /  4.8km/h 89% 0.00in /  0mm
23:19 30.4 °F /  -0.9 °C 27.5 °F /  -2.5 °C 30.31in /  1026.3hPa SW 1.0mph /  1.6km/h 3.0mph /  4.8km/h 89% 0.00in /  0mm
23:24 30.2 °F /  -1 °C 27.3 °F /  -2.6 °C 30.31in /  1026.3hPa Calm   3.0mph /  4.8km/h 89% 0.00in /  0mm
23:29 30.2 °F /  -1 °C 27.3 °F /  -2.6 °C 30.31in /  1026.3hPa Calm   2.0mph /  3.2km/h 89% 0.00in /  0mm
23:34 30.2 °F /  -1 °C 27.3 °F /  -2.6 °C 30.31in /  1026.3hPa SW 2.0mph /  3.2km/h 2.0mph /  3.2km/h 89% 0.00in /  0mm
23:39 30.1 °F /  -1.1 °C 27.3 °F /  -2.6 °C 30.31in /  1026.3hPa SW 1.0mph /  1.6km/h 3.0mph /  4.8km/h 89% 0.00in /  0mm
23:44 30.1 °F /  -1.1 °C 27.3 °F /  -2.6 °C 30.31in /  1026.3hPa SW 1.0mph /  1.6km/h 3.0mph /  4.8km/h 89% 0.00in /  0mm
23:49 30.0 °F /  -1.1 °C 27.4 °F /  -2.6 °C 30.31in /  1026.3hPa WSW 1.0mph /  1.6km/h 3.0mph /  4.8km/h 90% 0.00in /  0mm
23:54 30.0 °F /  -1.1 °C 27.4 °F /  -2.6 °C 30.30in /  1026hPa SW 1.0mph /  1.6km/h 3.0mph /  4.8km/h 90% 0.00in /  0mm
23:59 30.1 °F /  -1.1 °C 27.5 °F /  -2.5 °C 30.30in /  1026hPa Calm   2.0mph /  3.2km/h 90% 0.00in /  0mm
Buffalo, New York, USA
Compliments of Weather Underground - 2.5 mb